sensor_id;sensor_type;location;lat;lon;timestamp;pressure;altitude;pressure_sealevel;temperature;humidity
9746;BME280;4912;50.836;12.958;2023-04-24T00:00:40;96616.50;;;15.17;74.32
9746;BME280;4912;50.836;12.958;2023-04-24T00:03:12;96607.16;;;15.14;74.50
9746;BME280;4912;50.836;12.958;2023-04-24T00:05:46;96606.13;;;15.18;74.42
9746;BME280;4912;50.836;12.958;2023-04-24T00:08:17;96607.91;;;15.15;74.34
9746;BME280;4912;50.836;12.958;2023-04-24T00:10:48;96604.00;;;15.24;73.59
9746;BME280;4912;50.836;12.958;2023-04-24T00:13:19;96603.94;;;15.10;73.15
9746;BME280;4912;50.836;12.958;2023-04-24T00:15:50;96605.22;;;15.09;73.31
9746;BME280;4912;50.836;12.958;2023-04-24T00:18:21;96606.34;;;15.01;73.77
9746;BME280;4912;50.836;12.958;2023-04-24T00:20:54;96592.50;;;14.95;74.58
9746;BME280;4912;50.836;12.958;2023-04-24T00:23:24;96602.13;;;14.94;75.07
9746;BME280;4912;50.836;12.958;2023-04-24T00:25:54;96607.03;;;14.88;75.57
9746;BME280;4912;50.836;12.958;2023-04-24T00:28:25;96599.88;;;14.93;75.99
9746;BME280;4912;50.836;12.958;2023-04-24T00:30:56;96596.94;;;14.85;76.86
9746;BME280;4912;50.836;12.958;2023-04-24T00:33:26;96597.16;;;14.87;77.23
9746;BME280;4912;50.836;12.958;2023-04-24T00:35:59;96601.59;;;14.77;77.96
9746;BME280;4912;50.836;12.958;2023-04-24T00:38:30;96597.31;;;14.76;78.42
9746;BME280;4912;50.836;12.958;2023-04-24T00:41:00;96594.06;;;14.72;78.97
9746;BME280;4912;50.836;12.958;2023-04-24T00:43:31;96591.19;;;14.59;79.94
9746;BME280;4912;50.836;12.958;2023-04-24T00:46:02;96584.28;;;14.65;79.90
9746;BME280;4912;50.836;12.958;2023-04-24T00:48:34;96589.31;;;14.67;79.79
9746;BME280;4912;50.836;12.958;2023-04-24T00:51:07;96580.91;;;14.72;79.63
9746;BME280;4912;50.836;12.958;2023-04-24T00:53:38;96592.56;;;14.71;79.74
9746;BME280;4912;50.836;12.958;2023-04-24T00:56:09;96590.22;;;14.75;79.66
9746;BME280;4912;50.836;12.958;2023-04-24T00:58:40;96587.44;;;14.75;79.50
9746;BME280;4912;50.836;12.958;2023-04-24T01:01:14;96585.66;;;14.78;79.21
9746;BME280;4912;50.836;12.958;2023-04-24T01:03:53;96583.06;;;14.80;79.27
9746;BME280;4912;50.836;12.958;2023-04-24T01:06:29;96600.84;;;14.77;79.54
9746;BME280;4912;50.836;12.958;2023-04-24T01:09:00;96588.69;;;14.55;80.44
9746;BME280;4912;50.836;12.958;2023-04-24T01:11:31;96587.28;;;14.49;81.02
9746;BME280;4912;50.836;12.958;2023-04-24T01:14:02;96587.03;;;14.47;81.38
9746;BME280;4912;50.836;12.958;2023-04-24T01:16:34;96581.34;;;14.33;82.18
9746;BME280;4912;50.836;12.958;2023-04-24T01:19:07;96571.72;;;14.34;82.21
9746;BME280;4912;50.836;12.958;2023-04-24T01:21:42;96583.81;;;14.43;81.55
9746;BME280;4912;50.836;12.958;2023-04-24T01:24:16;96582.81;;;14.40;81.37
9746;BME280;4912;50.836;12.958;2023-04-24T01:26:49;96571.16;;;14.42;81.27
9746;BME280;4912;50.836;12.958;2023-04-24T01:29:22;96571.72;;;14.34;81.44
9746;BME280;4912;50.836;12.958;2023-04-24T01:31:55;96573.81;;;14.28;81.46
9746;BME280;4912;50.836;12.958;2023-04-24T01:34:26;96566.38;;;14.37;81.41
9746;BME280;4912;50.836;12.958;2023-04-24T01:36:56;96575.22;;;14.41;80.90
9746;BME280;4912;50.836;12.958;2023-04-24T01:39:29;96575.59;;;14.26;81.33
9746;BME280;4912;50.836;12.958;2023-04-24T01:42:00;96575.66;;;14.20;81.64
9746;BME280;4912;50.836;12.958;2023-04-24T01:44:32;96570.44;;;14.35;80.73
9746;BME280;4912;50.836;12.958;2023-04-24T01:47:04;96576.19;;;14.43;80.01
9746;BME280;4912;50.836;12.958;2023-04-24T01:49:39;96579.53;;;14.36;79.64
9746;BME280;4912;50.836;12.958;2023-04-24T01:52:12;96582.97;;;14.23;80.24
9746;BME280;4912;50.836;12.958;2023-04-24T01:54:49;96587.72;;;14.28;79.99
9746;BME280;4912;50.836;12.958;2023-04-24T01:57:20;96587.84;;;14.17;79.89
9746;BME280;4912;50.836;12.958;2023-04-24T01:59:51;96590.63;;;14.17;79.95
9746;BME280;4912;50.836;12.958;2023-04-24T02:02:21;96585.31;;;14.14;80.01
9746;BME280;4912;50.836;12.958;2023-04-24T02:04:59;96582.91;;;14.05;80.53
9746;BME280;4912;50.836;12.958;2023-04-24T02:07:30;96588.22;;;14.03;80.63
9746;BME280;4912;50.836;12.958;2023-04-24T02:10:04;96586.09;;;14.14;79.87
9746;BME280;4912;50.836;12.958;2023-04-24T02:12:36;96591.69;;;14.09;79.85
9746;BME280;4912;50.836;12.958;2023-04-24T02:15:07;96593.31;;;13.99;80.76
9746;BME280;4912;50.836;12.958;2023-04-24T02:17:39;96583.91;;;14.07;80.06
9746;BME280;4912;50.836;12.958;2023-04-24T02:20:10;96595.72;;;14.13;79.84
9746;BME280;4912;50.836;12.958;2023-04-24T02:22:41;96590.16;;;14.13;79.50
9746;BME280;4912;50.836;12.958;2023-04-24T02:25:14;96599.03;;;14.12;79.81
9746;BME280;4912;50.836;12.958;2023-04-24T02:27:48;96590.72;;;14.06;79.71
9746;BME280;4912;50.836;12.958;2023-04-24T02:30:19;96587.38;;;14.13;79.50
9746;BME280;4912;50.836;12.958;2023-04-24T02:32:50;96592.47;;;14.09;79.19
9746;BME280;4912;50.836;12.958;2023-04-24T02:35:20;96586.50;;;14.00;79.58
9746;BME280;4912;50.836;12.958;2023-04-24T02:37:51;96590.84;;;13.95;79.63
9746;BME280;4912;50.836;12.958;2023-04-24T02:40:26;96591.16;;;13.86;80.09
9746;BME280;4912;50.836;12.958;2023-04-24T02:42:57;96588.38;;;13.86;80.26
9746;BME280;4912;50.836;12.958;2023-04-24T02:45:29;96590.47;;;13.80;80.14
9746;BME280;4912;50.836;12.958;2023-04-24T02:48:03;96593.59;;;13.71;80.60
9746;BME280;4912;50.836;12.958;2023-04-24T02:50:33;96594.03;;;13.75;80.44
9746;BME280;4912;50.836;12.958;2023-04-24T02:53:04;96591.50;;;13.77;79.83
9746;BME280;4912;50.836;12.958;2023-04-24T02:55:39;96586.66;;;13.83;79.66
9746;BME280;4912;50.836;12.958;2023-04-24T02:58:12;96591.13;;;13.91;79.50
9746;BME280;4912;50.836;12.958;2023-04-24T03:00:44;96583.78;;;13.94;78.67
9746;BME280;4912;50.836;12.958;2023-04-24T03:03:14;96588.56;;;13.93;78.59
9746;BME280;4912;50.836;12.958;2023-04-24T03:05:45;96575.44;;;13.94;78.43
9746;BME280;4912;50.836;12.958;2023-04-24T03:08:16;96579.34;;;13.80;79.17
9746;BME280;4912;50.836;12.958;2023-04-24T03:10:50;96580.84;;;13.81;79.57
9746;BME280;4912;50.836;12.958;2023-04-24T03:13:21;96586.41;;;13.81;79.19
9746;BME280;4912;50.836;12.958;2023-04-24T03:15:51;96587.94;;;13.82;79.30
9746;BME280;4912;50.836;12.958;2023-04-24T03:18:22;96594.03;;;13.75;79.55
9746;BME280;4912;50.836;12.958;2023-04-24T03:20:53;96580.00;;;13.62;80.40
9746;BME280;4912;50.836;12.958;2023-04-24T03:23:24;96594.94;;;13.59;80.42
9746;BME280;4912;50.836;12.958;2023-04-24T03:25:57;96587.88;;;13.58;80.67
9746;BME280;4912;50.836;12.958;2023-04-24T03:28:37;96579.84;;;13.54;80.89
9746;BME280;4912;50.836;12.958;2023-04-24T03:31:08;96580.09;;;13.50;80.77
9746;BME280;4912;50.836;12.958;2023-04-24T03:33:38;96577.81;;;13.49;81.03
9746;BME280;4912;50.836;12.958;2023-04-24T03:36:09;96572.00;;;13.52;80.70
9746;BME280;4912;50.836;12.958;2023-04-24T03:38:41;96575.81;;;13.49;80.77
9746;BME280;4912;50.836;12.958;2023-04-24T03:41:25;96578.59;;;13.49;80.57
9746;BME280;4912;50.836;12.958;2023-04-24T03:44:03;96577.09;;;13.48;80.71
9746;BME280;4912;50.836;12.958;2023-04-24T03:46:34;96574.38;;;13.43;80.86
9746;BME280;4912;50.836;12.958;2023-04-24T03:49:06;96581.69;;;13.40;80.79
9746;BME280;4912;50.836;12.958;2023-04-24T03:51:41;96580.47;;;13.36;81.05
9746;BME280;4912;50.836;12.958;2023-04-24T03:54:18;96581.31;;;13.25;81.23
9746;BME280;4912;50.836;12.958;2023-04-24T03:56:58;96594.47;;;13.19;81.76
9746;BME280;4912;50.836;12.958;2023-04-24T03:59:30;96585.91;;;13.17;81.75
9746;BME280;4912;50.836;12.958;2023-04-24T04:02:15;96586.88;;;13.20;81.46
9746;BME280;4912;50.836;12.958;2023-04-24T04:04:46;96592.44;;;13.20;81.72
9746;BME280;4912;50.836;12.958;2023-04-24T04:07:17;96573.50;;;13.24;81.34
9746;BME280;4912;50.836;12.958;2023-04-24T04:09:48;96575.03;;;13.19;81.12
9746;BME280;4912;50.836;12.958;2023-04-24T04:12:25;96589.19;;;13.16;81.37
9746;BME280;4912;50.836;12.958;2023-04-24T04:14:57;96572.72;;;13.23;80.74
9746;BME280;4912;50.836;12.958;2023-04-24T04:17:30;96578.78;;;13.22;80.51
9746;BME280;4912;50.836;12.958;2023-04-24T04:20:08;96583.28;;;13.30;80.34
9746;BME280;4912;50.836;12.958;2023-04-24T04:22:40;96590.78;;;13.41;79.64
9746;BME280;4912;50.836;12.958;2023-04-24T04:25:16;96595.75;;;13.53;78.59
9746;BME280;4912;50.836;12.958;2023-04-24T04:27:49;96588.94;;;13.55;78.76
9746;BME280;4912;50.836;12.958;2023-04-24T04:30:22;96594.53;;;13.43;78.87
9746;BME280;4912;50.836;12.958;2023-04-24T04:33:01;96592.81;;;13.40;79.12
9746;BME280;4912;50.836;12.958;2023-04-24T04:35:33;96585.50;;;13.37;79.14
9746;BME280;4912;50.836;12.958;2023-04-24T04:38:04;96588.06;;;13.35;78.98
9746;BME280;4912;50.836;12.958;2023-04-24T04:40:43;96586.16;;;13.49;78.42
9746;BME280;4912;50.836;12.958;2023-04-24T04:43:19;96586.22;;;13.43;77.94
9746;BME280;4912;50.836;12.958;2023-04-24T04:45:51;96582.75;;;13.32;78.71
9746;BME280;4912;50.836;12.958;2023-04-24T04:48:48;96577.03;;;13.24;79.17
9746;BME280;4912;50.836;12.958;2023-04-24T04:51:18;96567.94;;;13.24;79.23
9746;BME280;4912;50.836;12.958;2023-04-24T04:53:49;96567.22;;;13.18;79.54
9746;BME280;4912;50.836;12.958;2023-04-24T04:56:19;96568.72;;;13.19;79.78
9746;BME280;4912;50.836;12.958;2023-04-24T04:58:53;96573.41;;;13.35;78.90
9746;BME280;4912;50.836;12.958;2023-04-24T05:01:24;96576.69;;;13.33;78.60
9746;BME280;4912;50.836;12.958;2023-04-24T05:03:55;96584.56;;;13.29;78.79
9746;BME280;4912;50.836;12.958;2023-04-24T05:06:26;96603.28;;;13.23;78.65
9746;BME280;4912;50.836;12.958;2023-04-24T05:08:58;96599.47;;;13.26;79.05
9746;BME280;4912;50.836;12.958;2023-04-24T05:11:37;96605.41;;;13.47;78.23
9746;BME280;4912;50.836;12.958;2023-04-24T05:14:11;96603.09;;;13.51;77.93
9746;BME280;4912;50.836;12.958;2023-04-24T05:16:42;96610.47;;;13.73;77.06
9746;BME280;4912;50.836;12.958;2023-04-24T05:19:14;96606.59;;;13.87;76.40
9746;BME280;4912;50.836;12.958;2023-04-24T05:21:45;96609.56;;;13.94;76.17
9746;BME280;4912;50.836;12.958;2023-04-24T05:24:16;96613.66;;;13.88;75.97
9746;BME280;4912;50.836;12.958;2023-04-24T05:27:09;96619.13;;;13.99;75.67
9746;BME280;4912;50.836;12.958;2023-04-24T05:29:43;96619.34;;;14.01;75.58
9746;BME280;4912;50.836;12.958;2023-04-24T05:32:13;96633.25;;;14.01;75.59
9746;BME280;4912;50.836;12.958;2023-04-24T05:34:44;96631.66;;;14.11;75.53
9746;BME280;4912;50.836;12.958;2023-04-24T05:37:17;96644.84;;;14.05;74.96
9746;BME280;4912;50.836;12.958;2023-04-24T05:39:48;96635.56;;;13.97;75.49
9746;BME280;4912;50.836;12.958;2023-04-24T05:42:18;96629.94;;;14.03;75.23
9746;BME280;4912;50.836;12.958;2023-04-24T05:44:52;96637.72;;;14.10;74.35
9746;BME280;4912;50.836;12.958;2023-04-24T05:47:24;96637.78;;;14.04;74.31
9746;BME280;4912;50.836;12.958;2023-04-24T05:49:54;96628.63;;;14.09;74.37
9746;BME280;4912;50.836;12.958;2023-04-24T05:52:25;96632.47;;;14.30;73.16
9746;BME280;4912;50.836;12.958;2023-04-24T05:54:56;96621.78;;;14.34;72.60
9746;BME280;4912;50.836;12.958;2023-04-24T05:57:31;96626.34;;;14.38;72.30
9746;BME280;4912;50.836;12.958;2023-04-24T06:00:07;96634.94;;;14.34;71.76
9746;BME280;4912;50.836;12.958;2023-04-24T06:02:49;96624.56;;;14.34;72.21
9746;BME280;4912;50.836;12.958;2023-04-24T06:05:22;96623.44;;;14.24;72.32
9746;BME280;4912;50.836;12.958;2023-04-24T06:07:53;96639.00;;;14.33;71.31
9746;BME280;4912;50.836;12.958;2023-04-24T06:10:27;96624.41;;;14.51;70.82
9746;BME280;4912;50.836;12.958;2023-04-24T06:12:57;96630.22;;;14.53;70.53
9746;BME280;4912;50.836;12.958;2023-04-24T06:15:33;96632.72;;;14.57;70.41
9746;BME280;4912;50.836;12.958;2023-04-24T06:18:07;96615.59;;;14.71;69.48
9746;BME280;4912;50.836;12.958;2023-04-24T06:20:38;96628.19;;;14.54;69.77
9746;BME280;4912;50.836;12.958;2023-04-24T06:23:09;96627.09;;;14.38;70.36
9746;BME280;4912;50.836;12.958;2023-04-24T06:25:40;96621.16;;;14.23;70.93
9746;BME280;4912;50.836;12.958;2023-04-24T06:28:12;96633.59;;;14.16;70.94
9746;BME280;4912;50.836;12.958;2023-04-24T06:30:45;96633.81;;;14.24;71.29
9746;BME280;4912;50.836;12.958;2023-04-24T06:33:16;96626.34;;;14.38;71.00
9746;BME280;4912;50.836;12.958;2023-04-24T06:35:49;96638.09;;;14.49;70.18
9746;BME280;4912;50.836;12.958;2023-04-24T06:38:20;96640.50;;;14.40;70.05
9746;BME280;4912;50.836;12.958;2023-04-24T06:40:50;96618.69;;;14.44;70.18
9746;BME280;4912;50.836;12.958;2023-04-24T06:43:21;96618.91;;;14.46;70.43
9746;BME280;4912;50.836;12.958;2023-04-24T06:45:54;96623.78;;;14.40;71.02
9746;BME280;4912;50.836;12.958;2023-04-24T06:48:25;96622.41;;;14.52;70.23
9746;BME280;4912;50.836;12.958;2023-04-24T06:50:56;96617.38;;;14.69;69.90
9746;BME280;4912;50.836;12.958;2023-04-24T06:53:26;96614.25;;;14.97;68.34
9746;BME280;4912;50.836;12.958;2023-04-24T06:55:57;96617.72;;;14.84;68.15
9746;BME280;4912;50.836;12.958;2023-04-24T06:58:28;96610.88;;;14.61;68.90
9746;BME280;4912;50.836;12.958;2023-04-24T07:01:01;96614.25;;;14.78;69.13
9746;BME280;4912;50.836;12.958;2023-04-24T07:03:32;96615.81;;;14.73;68.67
9746;BME280;4912;50.836;12.958;2023-04-24T07:06:04;96623.53;;;14.62;68.76
9746;BME280;4912;50.836;12.958;2023-04-24T07:08:35;96618.75;;;14.38;69.77
9746;BME280;4912;50.836;12.958;2023-04-24T07:11:05;96620.78;;;14.38;70.05
9746;BME280;4912;50.836;12.958;2023-04-24T07:13:36;96620.50;;;14.41;70.48
9746;BME280;4912;50.836;12.958;2023-04-24T07:16:11;96626.25;;;14.49;69.78
9746;BME280;4912;50.836;12.958;2023-04-24T07:18:42;96632.06;;;14.45;69.90
9746;BME280;4912;50.836;12.958;2023-04-24T07:21:13;96622.63;;;14.54;69.62
9746;BME280;4912;50.836;12.958;2023-04-24T07:23:43;96636.69;;;14.61;69.53
9746;BME280;4912;50.836;12.958;2023-04-24T07:26:14;96645.13;;;14.56;69.93
9746;BME280;4912;50.836;12.958;2023-04-24T07:28:44;96648.25;;;14.71;68.98
9746;BME280;4912;50.836;12.958;2023-04-24T07:31:18;96645.59;;;14.60;69.71
9746;BME280;4912;50.836;12.958;2023-04-24T07:33:49;96647.06;;;14.61;68.53
9746;BME280;4912;50.836;12.958;2023-04-24T07:36:19;96644.41;;;14.50;68.95
9746;BME280;4912;50.836;12.958;2023-04-24T07:38:51;96650.91;;;14.58;68.10
9746;BME280;4912;50.836;12.958;2023-04-24T07:41:22;96646.50;;;14.44;68.64
9746;BME280;4912;50.836;12.958;2023-04-24T07:43:55;96641.75;;;14.39;69.21
9746;BME280;4912;50.836;12.958;2023-04-24T07:46:29;96645.94;;;14.51;68.02
9746;BME280;4912;50.836;12.958;2023-04-24T07:49:00;96646.16;;;14.53;67.71
9746;BME280;4912;50.836;12.958;2023-04-24T07:51:39;96645.19;;;14.50;67.97
9746;BME280;4912;50.836;12.958;2023-04-24T07:54:10;96666.00;;;14.68;67.41
9746;BME280;4912;50.836;12.958;2023-04-24T07:56:41;96649.41;;;14.57;66.58
9746;BME280;4912;50.836;12.958;2023-04-24T07:59:12;96650.34;;;14.65;66.72
9746;BME280;4912;50.836;12.958;2023-04-24T08:01:45;96651.72;;;14.77;65.77
9746;BME280;4912;50.836;12.958;2023-04-24T08:04:16;96654.19;;;14.81;65.73
9746;BME280;4912;50.836;12.958;2023-04-24T08:06:48;96662.59;;;14.99;64.53
9746;BME280;4912;50.836;12.958;2023-04-24T08:09:18;96663.41;;;14.94;64.45
9746;BME280;4912;50.836;12.958;2023-04-24T08:11:49;96671.59;;;14.87;63.86
9746;BME280;4912;50.836;12.958;2023-04-24T08:14:20;96676.88;;;14.90;63.62
9746;BME280;4912;50.836;12.958;2023-04-24T08:16:54;96670.31;;;14.88;63.78
9746;BME280;4912;50.836;12.958;2023-04-24T08:19:27;96672.50;;;14.76;63.61
9746;BME280;4912;50.836;12.958;2023-04-24T08:21:57;96670.97;;;14.75;63.75
9746;BME280;4912;50.836;12.958;2023-04-24T08:24:28;96666.09;;;14.81;63.91
9746;BME280;4912;50.836;12.958;2023-04-24T08:26:58;96671.31;;;14.90;63.49
9746;BME280;4912;50.836;12.958;2023-04-24T08:29:29;96667.09;;;15.02;63.51
9746;BME280;4912;50.836;12.958;2023-04-24T08:32:02;96664.25;;;15.27;63.11
9746;BME280;4912;50.836;12.958;2023-04-24T08:34:33;96662.38;;;15.35;62.01
9746;BME280;4912;50.836;12.958;2023-04-24T08:37:04;96675.41;;;15.27;62.61
9746;BME280;4912;50.836;12.958;2023-04-24T08:39:34;96667.28;;;15.29;62.55
9746;BME280;4912;50.836;12.958;2023-04-24T08:42:05;96668.38;;;15.39;61.41
9746;BME280;4912;50.836;12.958;2023-04-24T08:44:36;96662.66;;;15.50;61.08
9746;BME280;4912;50.836;12.958;2023-04-24T08:47:09;96668.03;;;15.48;61.07
9746;BME280;4912;50.836;12.958;2023-04-24T08:49:42;96660.03;;;15.39;60.64
9746;BME280;4912;50.836;12.958;2023-04-24T08:52:13;96675.84;;;15.68;60.10
9746;BME280;4912;50.836;12.958;2023-04-24T08:54:45;96676.16;;;15.83;59.35
9746;BME280;4912;50.836;12.958;2023-04-24T08:57:17;96672.69;;;15.77;59.18
9746;BME280;4912;50.836;12.958;2023-04-24T08:59:47;96657.31;;;15.71;59.40
9746;BME280;4912;50.836;12.958;2023-04-24T09:02:21;96661.66;;;15.85;58.85
9746;BME280;4912;50.836;12.958;2023-04-24T09:04:53;96655.44;;;16.24;58.50
9746;BME280;4912;50.836;12.958;2023-04-24T09:07:27;96659.09;;;16.45;57.62
9746;BME280;4912;50.836;12.958;2023-04-24T09:10:01;96666.53;;;16.56;57.12
9746;BME280;4912;50.836;12.958;2023-04-24T09:12:32;96653.47;;;16.77;55.21
9746;BME280;4912;50.836;12.958;2023-04-24T09:15:03;96649.69;;;16.61;55.66
9746;BME280;4912;50.836;12.958;2023-04-24T09:17:38;96648.03;;;16.26;57.62
9746;BME280;4912;50.836;12.958;2023-04-24T09:20:09;96650.91;;;16.08;57.53
9746;BME280;4912;50.836;12.958;2023-04-24T09:22:40;96660.69;;;15.82;58.60
9746;BME280;4912;50.836;12.958;2023-04-24T09:25:10;96654.09;;;15.67;60.00
9746;BME280;4912;50.836;12.958;2023-04-24T09:27:42;96658.84;;;15.53;60.84
9746;BME280;4912;50.836;12.958;2023-04-24T09:30:21;96655.91;;;15.64;60.27
9746;BME280;4912;50.836;12.958;2023-04-24T09:33:09;96651.06;;;15.46;61.08
9746;BME280;4912;50.836;12.958;2023-04-24T09:35:41;96662.06;;;15.38;61.35
9746;BME280;4912;50.836;12.958;2023-04-24T09:38:12;96660.34;;;15.16;62.31
9746;BME280;4912;50.836;12.958;2023-04-24T09:40:43;96660.84;;;15.15;62.66
9746;BME280;4912;50.836;12.958;2023-04-24T09:43:14;96661.69;;;15.29;62.76
9746;BME280;4912;50.836;12.958;2023-04-24T09:45:44;96662.91;;;15.52;62.19
9746;BME280;4912;50.836;12.958;2023-04-24T09:48:17;96667.06;;;15.64;61.20
9746;BME280;4912;50.836;12.958;2023-04-24T09:50:52;96671.50;;;15.35;60.78
9746;BME280;4912;50.836;12.958;2023-04-24T09:53:24;96674.50;;;15.19;60.90
9746;BME280;4912;50.836;12.958;2023-04-24T09:55:55;96661.47;;;15.27;59.98
9746;BME280;4912;50.836;12.958;2023-04-24T09:58:28;96673.13;;;15.44;59.24
9746;BME280;4912;50.836;12.958;2023-04-24T10:00:59;96668.94;;;15.56;57.65
9746;BME280;4912;50.836;12.958;2023-04-24T10:03:33;96663.03;;;15.78;56.26
9746;BME280;4912;50.836;12.958;2023-04-24T10:06:04;96661.25;;;16.39;54.85
9746;BME280;4912;50.836;12.958;2023-04-24T10:08:36;96666.66;;;17.50;51.54
9746;BME280;4912;50.836;12.958;2023-04-24T10:11:07;96656.94;;;18.68;48.60
9746;BME280;4912;50.836;12.958;2023-04-24T10:13:39;96653.16;;;19.30;46.37
9746;BME280;4912;50.836;12.958;2023-04-24T10:16:10;96673.78;;;18.47;45.41
9746;BME280;4912;50.836;12.958;2023-04-24T10:18:44;96652.88;;;17.65;47.56
9746;BME280;4912;50.836;12.958;2023-04-24T10:21:15;96665.38;;;17.51;48.25
9746;BME280;4912;50.836;12.958;2023-04-24T10:23:48;96661.69;;;17.69;47.15
9746;BME280;4912;50.836;12.958;2023-04-24T10:26:19;96656.13;;;17.90;46.72
9746;BME280;4912;50.836;12.958;2023-04-24T10:28:50;96653.72;;;18.35;45.23
9746;BME280;4912;50.836;12.958;2023-04-24T10:31:22;96653.13;;;18.86;43.80
9746;BME280;4912;50.836;12.958;2023-04-24T10:33:55;96667.03;;;19.35;41.55
9746;BME280;4912;50.836;12.958;2023-04-24T10:36:28;96650.25;;;18.71;43.30
9746;BME280;4912;50.836;12.958;2023-04-24T10:39:06;96647.06;;;18.46;44.19
9746;BME280;4912;50.836;12.958;2023-04-24T10:41:42;96669.75;;;18.35;44.47
9746;BME280;4912;50.836;12.958;2023-04-24T10:44:15;96657.78;;;19.55;40.48
9746;BME280;4912;50.836;12.958;2023-04-24T10:46:47;96665.75;;;20.02;37.69
9746;BME280;4912;50.836;12.958;2023-04-24T10:49:30;96662.03;;;20.38;35.38
9746;BME280;4912;50.836;12.958;2023-04-24T10:52:22;96681.66;;;20.08;35.62
9746;BME280;4912;50.836;12.958;2023-04-24T10:54:52;96682.06;;;19.53;36.13
9746;BME280;4912;50.836;12.958;2023-04-24T10:57:28;96681.94;;;19.74;36.43
9746;BME280;4912;50.836;12.958;2023-04-24T11:00:13;96678.84;;;20.23;36.07
9746;BME280;4912;50.836;12.958;2023-04-24T11:02:46;96664.94;;;21.01;34.66
9746;BME280;4912;50.836;12.958;2023-04-24T11:05:50;96688.47;;;19.69;36.65
9746;BME280;4912;50.836;12.958;2023-04-24T11:08:33;96680.09;;;18.68;38.69
9746;BME280;4912;50.836;12.958;2023-04-24T11:11:12;96675.44;;;18.42;39.77
9746;BME280;4912;50.836;12.958;2023-04-24T11:14:04;96679.97;;;19.02;39.73
9746;BME280;4912;50.836;12.958;2023-04-24T11:16:43;96695.41;;;19.75;37.70
9746;BME280;4912;50.836;12.958;2023-04-24T11:19:20;96680.66;;;19.82;36.80
9746;BME280;4912;50.836;12.958;2023-04-24T11:21:58;96703.78;;;18.88;37.65
9746;BME280;4912;50.836;12.958;2023-04-24T11:24:32;96701.59;;;18.24;39.28
9746;BME280;4912;50.836;12.958;2023-04-24T11:27:18;96701.44;;;18.71;37.40
9746;BME280;4912;50.836;12.958;2023-04-24T11:29:59;96703.28;;;19.33;35.24
9746;BME280;4912;50.836;12.958;2023-04-24T11:32:34;96707.09;;;18.79;35.43
9746;BME280;4912;50.836;12.958;2023-04-24T11:35:12;96728.53;;;17.93;36.82
9746;BME280;4912;50.836;12.958;2023-04-24T11:37:48;96720.16;;;17.33;38.73
9746;BME280;4912;50.836;12.958;2023-04-24T11:40:42;96716.00;;;17.13;39.41
9746;BME280;4912;50.836;12.958;2023-04-24T11:43:16;96722.53;;;17.16;39.78
9746;BME280;4912;50.836;12.958;2023-04-24T11:45:48;96729.16;;;17.52;39.25
9746;BME280;4912;50.836;12.958;2023-04-24T11:48:19;96719.09;;;18.59;37.43
9746;BME280;4912;50.836;12.958;2023-04-24T11:50:50;96730.84;;;19.93;35.20
9746;BME280;4912;50.836;12.958;2023-04-24T11:53:25;96717.63;;;20.93;32.94
9746;BME280;4912;50.836;12.958;2023-04-24T11:55:58;96731.72;;;20.62;32.41
9746;BME280;4912;50.836;12.958;2023-04-24T11:58:34;96714.97;;;21.10;31.97
9746;BME280;4912;50.836;12.958;2023-04-24T12:01:05;96707.69;;;21.62;30.20
9746;BME280;4912;50.836;12.958;2023-04-24T12:03:36;96714.38;;;22.71;28.60
9746;BME280;4912;50.836;12.958;2023-04-24T12:06:07;96714.47;;;22.07;28.95
9746;BME280;4912;50.836;12.958;2023-04-24T12:08:41;96730.50;;;21.34;29.16
9746;BME280;4912;50.836;12.958;2023-04-24T12:11:15;96757.06;;;19.96;30.86
9746;BME280;4912;50.836;12.958;2023-04-24T12:13:46;96736.06;;;19.10;33.23
9746;BME280;4912;50.836;12.958;2023-04-24T12:16:17;96730.47;;;18.81;33.87
9746;BME280;4912;50.836;12.958;2023-04-24T12:18:50;96732.19;;;19.20;33.44
9746;BME280;4912;50.836;12.958;2023-04-24T12:21:22;96725.88;;;19.63;32.88
9746;BME280;4912;50.836;12.958;2023-04-24T12:23:58;96711.09;;;19.63;32.35
9746;BME280;4912;50.836;12.958;2023-04-24T12:26:28;96711.06;;;19.48;32.71
9746;BME280;4912;50.836;12.958;2023-04-24T12:29:01;96737.19;;;18.78;32.87
9746;BME280;4912;50.836;12.958;2023-04-24T12:31:35;96728.25;;;18.59;33.44
9746;BME280;4912;50.836;12.958;2023-04-24T12:34:17;96733.34;;;18.48;33.77
9746;BME280;4912;50.836;12.958;2023-04-24T12:36:49;96733.81;;;18.80;33.44
9746;BME280;4912;50.836;12.958;2023-04-24T12:39:22;96737.19;;;18.58;33.46
9746;BME280;4912;50.836;12.958;2023-04-24T12:41:56;96733.97;;;19.39;32.24
9746;BME280;4912;50.836;12.958;2023-04-24T12:44:32;96742.06;;;18.02;34.00
9746;BME280;4912;50.836;12.958;2023-04-24T12:47:04;96723.03;;;17.54;35.42
9746;BME280;4912;50.836;12.958;2023-04-24T12:49:34;96735.88;;;17.36;36.56
9746;BME280;4912;50.836;12.958;2023-04-24T12:52:05;96724.28;;;16.93;37.02
9746;BME280;4912;50.836;12.958;2023-04-24T12:54:38;96729.84;;;16.79;37.90
9746;BME280;4912;50.836;12.958;2023-04-24T12:57:08;96711.34;;;17.16;38.20
9746;BME280;4912;50.836;12.958;2023-04-24T12:59:39;96722.72;;;18.67;35.09
9746;BME280;4912;50.836;12.958;2023-04-24T13:02:10;96723.59;;;20.13;31.84
9746;BME280;4912;50.836;12.958;2023-04-24T13:04:41;96717.19;;;21.82;29.14
9746;BME280;4912;50.836;12.958;2023-04-24T13:07:11;96715.56;;;20.25;30.97
9746;BME280;4912;50.836;12.958;2023-04-24T13:09:48;96712.97;;;20.42;31.13
9746;BME280;4912;50.836;12.958;2023-04-24T13:12:19;96715.28;;;19.41;31.93
9746;BME280;4912;50.836;12.958;2023-04-24T13:14:51;96706.00;;;18.82;33.08
9746;BME280;4912;50.836;12.958;2023-04-24T13:17:21;96719.19;;;18.74;33.12
9746;BME280;4912;50.836;12.958;2023-04-24T13:19:54;96701.72;;;18.60;33.17
9746;BME280;4912;50.836;12.958;2023-04-24T13:22:25;96723.56;;;18.83;33.60
9746;BME280;4912;50.836;12.958;2023-04-24T13:24:58;96715.31;;;18.35;34.03
9746;BME280;4912;50.836;12.958;2023-04-24T13:27:28;96720.09;;;18.07;35.16
9746;BME280;4912;50.836;12.958;2023-04-24T13:29:59;96711.50;;;18.25;34.87
9746;BME280;4912;50.836;12.958;2023-04-24T13:32:29;96723.41;;;18.60;34.32
9746;BME280;4912;50.836;12.958;2023-04-24T13:35:00;96720.66;;;17.71;35.79
9746;BME280;4912;50.836;12.958;2023-04-24T13:37:31;96717.16;;;17.18;36.69
9746;BME280;4912;50.836;12.958;2023-04-24T13:40:06;96711.16;;;17.01;37.21